Time;durP1;ratioP1;P1;durP2;ratioP2;P2;SDS_P1;SDS_P2;PMS_P1;PMS_P2;Temp;Humidity;BMP_temperature;BMP_pressure;BME280_temperature;BME280_humidity;BME280_pressure;Samples;Min_cycle;Max_cycle;Signal;HPM_P1;HPM_P2
2023/06/13 00:01:17;;;;;;;23.00;21.90;;;27.20;39.00;;;;;;5053853;28;20487;-64
2023/06/13 00:03:47;;;;;;;23.30;22.20;;;27.20;38.90;;;;;;5054396;28;20468;-64
2023/06/13 00:06:15;;;;;;;24.07;22.97;;;27.20;38.90;;;;;;5055159;28;20466;-64
2023/06/13 00:08:42;;;;;;;23.00;22.00;;;27.10;38.80;;;;;;5054575;28;20567;-65
2023/06/13 00:11:09;;;;;;;22.57;21.50;;;27.10;38.90;;;;;;5053671;28;20879;-64
2023/06/13 00:13:36;;;;;;;23.63;22.57;;;27.10;39.10;;;;;;5053364;28;20510;-64
2023/06/13 00:16:05;;;;;;;22.53;21.43;;;27.10;39.30;;;;;;5053837;28;20935;-64
2023/06/13 00:18:32;;;;;;;23.30;22.13;;;27.10;39.40;;;;;;5053908;28;20444;-64
2023/06/13 00:21:00;;;;;;;23.37;22.17;;;27.10;39.40;;;;;;5054411;28;20448;-64
2023/06/13 00:23:27;;;;;;;22.90;21.80;;;27.10;39.50;;;;;;5054367;28;20959;-63
2023/06/13 00:25:54;;;;;;;22.83;21.70;;;27.10;39.70;;;;;;5054079;28;20491;-64
2023/06/13 00:28:21;;;;;;;22.97;21.80;;;27.10;39.70;;;;;;5054688;28;20519;-64
2023/06/13 00:30:48;;;;;;;24.03;22.83;;;27.10;39.60;;;;;;5054305;28;20480;-64
2023/06/13 00:33:17;;;;;;;22.70;21.70;;;27.10;39.50;;;;;;5054089;28;20507;-64
2023/06/13 00:35:44;;;;;;;23.00;21.90;;;27.10;39.60;;;;;;5052983;28;20943;-64
2023/06/13 00:38:12;;;;;;;23.07;21.87;;;27.10;39.50;;;;;;5053419;28;20480;-64
2023/06/13 00:40:39;;;;;;;22.40;21.33;;;27.10;39.50;;;;;;5053397;28;20448;-64
2023/06/13 00:43:07;;;;;;;22.20;21.20;;;27.10;39.60;;;;;;5053073;28;20456;-63
2023/06/13 00:45:34;;;;;;;23.60;22.40;;;27.10;39.60;;;;;;5052242;28;20436;-64
2023/06/13 00:48:04;;;;;;;23.13;22.03;;;27.10;39.70;;;;;;5052424;28;20475;-64
2023/06/13 00:50:35;;;;;;;23.77;22.60;;;27.00;39.70;;;;;;5052659;28;20476;-64
2023/06/13 00:53:08;;;;;;;23.43;22.13;;;27.00;39.60;;;;;;5052980;28;20495;-63
2023/06/13 00:55:36;;;;;;;22.40;21.40;;;27.00;39.60;;;;;;5053232;28;20452;-64
2023/06/13 00:58:06;;;;;;;22.57;21.57;;;26.90;39.70;;;;;;5053539;28;20447;-64
2023/06/13 01:00:34;;;;;;;22.70;21.60;;;26.90;39.60;;;;;;5054576;28;20842;-64
2023/06/13 01:03:06;;;;;;;22.20;21.10;;;26.90;40.00;;;;;;5054307;28;20488;-64
2023/06/13 01:05:35;;;;;;;23.47;22.27;;;26.80;40.20;;;;;;5051415;28;20506;-63
2023/06/13 01:08:07;;;;;;;24.27;23.03;;;26.90;40.10;;;;;;5051635;28;20499;-63
2023/06/13 01:10:34;;;;;;;22.77;21.67;;;26.90;40.10;;;;;;5051586;28;20819;-63
2023/06/13 01:13:07;;;;;;;24.37;23.27;;;26.90;40.20;;;;;;5051086;28;20531;-63
2023/06/13 01:15:39;;;;;;;22.80;21.80;;;26.90;40.50;;;;;;5052601;28;20843;-63
2023/06/13 01:18:08;;;;;;;23.97;22.77;;;26.90;40.50;;;;;;5054817;28;20444;-63
2023/06/13 01:20:37;;;;;;;23.70;22.60;;;26.90;40.60;;;;;;5054964;28;20480;-63
2023/06/13 01:23:15;;;;;;;23.67;22.57;;;26.90;40.50;;;;;;5055118;28;20491;-63
2023/06/13 01:25:57;;;;;;;22.60;21.50;;;26.80;40.50;;;;;;5054968;28;20469;-63
2023/06/13 01:28:26;;;;;;;23.07;21.97;;;26.80;40.80;;;;;;5055097;28;20492;-63
2023/06/13 01:30:54;;;;;;;23.80;22.60;;;26.80;40.80;;;;;;5055307;28;20448;-63
2023/06/13 01:33:23;;;;;;;23.73;22.63;;;26.80;41.00;;;;;;5054931;28;20459;-63
2023/06/13 01:35:50;;;;;;;22.87;21.77;;;26.80;41.00;;;;;;5054680;28;20452;-63
2023/06/13 01:38:18;;;;;;;22.47;21.40;;;26.70;40.80;;;;;;5055021;28;20468;-64
2023/06/13 01:40:45;;;;;;;22.90;21.80;;;26.70;41.00;;;;;;5054643;28;20479;-63
2023/06/13 01:43:12;;;;;;;25.40;23.90;;;26.70;41.10;;;;;;5054361;28;20491;-63
2023/06/13 01:45:40;;;;;;;22.77;21.67;;;26.70;41.00;;;;;;5054449;28;20631;-64
2023/06/13 01:48:14;;;;;;;23.90;22.63;;;26.70;40.90;;;;;;5054307;28;20480;-63
2023/06/13 01:50:49;;;;;;;24.50;23.17;;;26.60;40.90;;;;;;5054464;28;20484;-63
2023/06/13 01:53:24;;;;;;;24.77;23.57;;;26.60;41.00;;;;;;5054195;28;20455;-63
2023/06/13 01:55:57;;;;;;;23.13;21.80;;;26.70;41.20;;;;;;5054059;28;20482;-63
2023/06/13 01:58:30;;;;;;;23.50;22.30;;;26.60;41.10;;;;;;5051723;28;20445;-64
2023/06/13 02:01:01;;;;;;;23.50;22.30;;;26.70;41.10;;;;;;5054299;28;20487;-63
2023/06/13 02:03:29;;;;;;;23.87;22.67;;;26.60;41.20;;;;;;5054337;28;20488;-64
2023/06/13 02:05:56;;;;;;;23.77;22.57;;;26.60;41.30;;;;;;5054119;28;20448;-63
2023/06/13 02:08:23;;;;;;;23.20;22.10;;;26.60;41.40;;;;;;5054439;28;20480;-64
2023/06/13 02:10:50;;;;;;;23.10;22.00;;;26.50;41.30;;;;;;5054195;28;20476;-64
2023/06/13 02:13:17;;;;;;;23.50;22.30;;;26.60;41.60;;;;;;5053605;28;20833;-64
2023/06/13 02:15:44;;;;;;;23.77;22.67;;;26.50;41.50;;;;;;5053665;28;20484;-64
2023/06/13 02:18:13;;;;;;;23.33;22.23;;;26.50;41.70;;;;;;5053540;28;20475;-64
2023/06/13 02:20:39;;;;;;;23.00;21.90;;;26.50;41.70;;;;;;5053857;28;20444;-64
2023/06/13 02:23:06;;;;;;;24.20;23.00;;;26.50;41.70;;;;;;5053865;28;20895;-64
2023/06/13 02:25:33;;;;;;;24.00;22.70;;;26.50;41.80;;;;;;5053322;28;20882;-64
2023/06/13 02:28:00;;;;;;;23.63;22.43;;;26.50;41.80;;;;;;5053447;28;20480;-64
2023/06/13 02:30:27;;;;;;;23.20;22.20;;;26.50;42.00;;;;;;5053692;28;20572;-64
2023/06/13 02:32:54;;;;;;;24.00;22.90;;;26.40;42.00;;;;;;5053836;28;20871;-63
2023/06/13 02:35:23;;;;;;;23.67;22.50;;;26.40;42.10;;;;;;5054155;28;20471;-64
2023/06/13 02:37:53;;;;;;;23.93;22.73;;;26.40;42.20;;;;;;5053719;28;20459;-64
2023/06/13 02:40:19;;;;;;;24.77;23.47;;;26.40;42.20;;;;;;5053795;28;20539;-64
2023/06/13 02:42:48;;;;;;;23.70;22.60;;;26.40;42.30;;;;;;5053791;28;20506;-64
2023/06/13 02:45:15;;;;;;;23.80;22.60;;;26.30;42.30;;;;;;5053659;28;20455;-64
2023/06/13 02:47:42;;;;;;;24.27;23.07;;;26.40;42.40;;;;;;5053348;28;20491;-64
2023/06/13 02:50:10;;;;;;;24.13;22.83;;;26.30;42.50;;;;;;5053636;28;20549;-63
2023/06/13 02:52:39;;;;;;;24.33;23.13;;;26.30;42.40;;;;;;5053275;28;20514;-63
2023/06/13 02:55:08;;;;;;;24.40;23.10;;;26.30;42.40;;;;;;5053823;28;20480;-63
2023/06/13 02:57:37;;;;;;;24.90;23.70;;;26.30;42.30;;;;;;5052978;28;20495;-63
2023/06/13 03:00:07;;;;;;;23.70;22.53;;;26.20;42.30;;;;;;5053425;28;20440;-63
2023/06/13 03:02:36;;;;;;;23.70;22.50;;;26.20;42.30;;;;;;5053608;28;20471;-64
2023/06/13 03:05:05;;;;;;;25.17;23.97;;;26.20;42.30;;;;;;5053242;28;20444;-63
2023/06/13 03:07:32;;;;;;;25.00;23.50;;;26.20;42.20;;;;;;5052806;28;20455;-63
2023/06/13 03:10:01;;;;;;;25.47;24.27;;;26.20;42.20;;;;;;5053133;28;20488;-63
2023/06/13 03:12:28;;;;;;;24.13;22.90;;;26.20;42.20;;;;;;5052370;28;20472;-64
2023/06/13 03:14:55;;;;;;;23.80;22.70;;;26.20;42.30;;;;;;5052638;28;20476;-64
2023/06/13 03:17:22;;;;;;;24.37;23.27;;;26.10;42.20;;;;;;5052226;28;20532;-64
2023/06/13 03:19:49;;;;;;;24.33;23.20;;;26.10;42.20;;;;;;5052587;28;20528;-64
2023/06/13 03:22:17;;;;;;;24.37;23.17;;;26.10;42.30;;;;;;5052482;28;20456;-63
2023/06/13 03:24:44;;;;;;;24.13;22.87;;;26.10;42.30;;;;;;5052632;28;20448;-63
2023/06/13 03:27:13;;;;;;;23.90;22.70;;;26.10;42.30;;;;;;5052145;28;20535;-64
2023/06/13 03:29:40;;;;;;;24.43;23.23;;;26.10;42.40;;;;;;5052598;28;20480;-63
2023/06/13 03:32:08;;;;;;;24.10;22.70;;;26.10;42.40;;;;;;5053320;28;20464;-64
2023/06/13 03:34:37;;;;;;;24.10;22.90;;;26.00;42.30;;;;;;5052767;28;20909;-64
2023/06/13 03:37:05;;;;;;;24.73;23.30;;;26.10;42.40;;;;;;5052287;28;20454;-64
2023/06/13 03:39:32;;;;;;;25.00;23.70;;;26.00;42.40;;;;;;5051885;28;20527;-64
2023/06/13 03:41:59;;;;;;;25.40;24.10;;;26.00;42.40;;;;;;5052156;28;20471;-64
2023/06/13 03:44:27;;;;;;;24.47;23.17;;;26.00;42.50;;;;;;5052105;28;20444;-64
2023/06/13 03:46:55;;;;;;;25.90;24.60;;;26.00;42.60;;;;;;5051517;28;20455;-64
2023/06/13 03:49:22;;;;;;;25.40;24.10;;;26.00;42.60;;;;;;5051825;28;20530;-63
2023/06/13 03:51:49;;;;;;;24.97;23.67;;;26.00;42.60;;;;;;5051832;28;21018;-64
2023/06/13 03:54:16;;;;;;;24.63;23.33;;;25.90;42.50;;;;;;5051893;28;20451;-63
2023/06/13 03:56:43;;;;;;;24.33;22.83;;;25.90;43.00;;;;;;5051350;28;20479;-64
2023/06/13 03:59:10;;;;;;;25.60;24.10;;;25.90;44.00;;;;;;5052059;28;20528;-63
2023/06/13 04:01:41;;;;;;;26.10;24.60;;;25.90;44.00;;;;;;5052276;28;20475;-64
2023/06/13 04:04:08;;;;;;;25.80;24.30;;;25.90;44.10;;;;;;5052509;28;20451;-63
2023/06/13 04:06:36;;;;;;;26.33;24.67;;;25.90;44.80;;;;;;5051610;28;20834;-63
2023/06/13 04:09:05;;;;;;;25.50;24.20;;;25.90;44.90;;;;;;5051858;28;20444;-63
2023/06/13 04:11:33;;;;;;;26.47;25.00;;;25.90;45.00;;;;;;5052006;28;20803;-63
2023/06/13 04:14:01;;;;;;;26.23;24.93;;;25.90;45.00;;;;;;5051868;28;20452;-64
2023/06/13 04:16:28;;;;;;;26.10;24.70;;;25.90;44.80;;;;;;5050960;28;20482;-61
2023/06/13 04:18:56;;;;;;;25.90;24.40;;;25.90;44.80;;;;;;5051376;28;20499;-62
2023/06/13 04:21:24;;;;;;;28.03;26.23;;;25.90;44.80;;;;;;5051195;28;20528;-61
2023/06/13 04:23:51;;;;;;;27.17;25.77;;;25.80;45.00;;;;;;5051222;28;20472;-62
2023/06/13 04:26:18;;;;;;;26.83;25.00;;;25.80;44.80;;;;;;5050928;28;20449;-61
2023/06/13 04:28:46;;;;;;;25.57;24.00;;;25.80;44.70;;;;;;5051145;28;20440;-59
2023/06/13 04:31:13;;;;;;;27.30;25.30;;;25.80;44.80;;;;;;5050953;28;20487;-62
2023/06/13 04:33:40;;;;;;;25.93;24.53;;;25.80;45.00;;;;;;5049482;28;20496;-63
2023/06/13 04:36:09;;;;;;;26.23;24.70;;;25.80;45.00;;;;;;5050819;28;20452;-61
2023/06/13 04:38:37;;;;;;;26.30;25.00;;;25.90;44.80;;;;;;5051104;28;20482;-62
2023/06/13 04:41:04;;;;;;;26.10;24.80;;;25.90;44.70;;;;;;5051072;28;20444;-63
2023/06/13 04:43:33;;;;;;;25.03;23.60;;;25.90;44.50;;;;;;5050939;28;20499;-63
2023/06/13 04:46:03;;;;;;;24.90;23.70;;;26.00;44.60;;;;;;5050972;28;20543;-63
2023/06/13 04:48:30;;;;;;;25.13;23.90;;;26.00;44.50;;;;;;5051043;28;20448;-63
2023/06/13 04:50:59;;;;;;;26.00;24.70;;;25.90;44.40;;;;;;5054658;28;20570;-63
2023/06/13 04:53:28;;;;;;;25.90;24.60;;;25.90;44.40;;;;;;5054794;28;20828;-63
2023/06/13 04:55:57;;;;;;;25.30;24.00;;;26.00;44.50;;;;;;5054727;28;20452;-62
2023/06/13 04:58:24;;;;;;;25.13;23.93;;;26.00;44.50;;;;;;5054723;28;20456;-63
2023/06/13 05:00:51;;;;;;;26.07;24.43;;;26.00;44.50;;;;;;5054813;28;20440;-62
2023/06/13 05:03:20;;;;;;;25.30;23.90;;;26.00;44.60;;;;;;5054500;28;20499;-63
2023/06/13 05:05:48;;;;;;;25.80;24.50;;;26.00;44.60;;;;;;5054531;28;20454;-62
2023/06/13 05:08:19;;;;;;;24.90;23.60;;;26.00;45.10;;;;;;5054526;28;20454;-63
2023/06/13 05:10:47;;;;;;;25.47;24.17;;;26.00;44.60;;;;;;5054521;28;20479;-63
2023/06/13 05:13:15;;;;;;;25.87;24.60;;;26.00;44.70;;;;;;5054359;28;20555;-63
2023/06/13 05:15:44;;;;;;;25.17;23.97;;;26.00;44.60;;;;;;5054220;28;20444;-62
2023/06/13 05:18:13;;;;;;;24.83;23.63;;;26.00;44.70;;;;;;5054372;28;20866;-62
2023/06/13 05:20:41;;;;;;;25.20;23.80;;;26.00;44.70;;;;;;5054506;28;20550;-63
2023/06/13 05:23:08;;;;;;;25.03;23.73;;;26.00;44.80;;;;;;5054354;28;20499;-63
2023/06/13 05:25:35;;;;;;;25.90;24.60;;;26.00;44.80;;;;;;5054087;28;20455;-62
2023/06/13 05:28:04;;;;;;;26.93;25.63;;;26.00;44.90;;;;;;5054189;28;20471;-63
2023/06/13 05:30:32;;;;;;;26.37;24.83;;;26.00;44.90;;;;;;5054139;28;20511;-63
2023/06/13 05:32:59;;;;;;;25.20;24.00;;;26.00;45.00;;;;;;5053953;28;20475;-62
2023/06/13 05:35:26;;;;;;;26.53;25.03;;;26.10;45.10;;;;;;5053944;28;20448;-63
2023/06/13 05:37:53;;;;;;;25.33;24.03;;;26.00;45.00;;;;;;5054090;28;20475;-63
2023/06/13 05:40:20;;;;;;;25.10;23.90;;;26.00;45.10;;;;;;5054002;28;20476;-61
2023/06/13 05:42:47;;;;;;;24.83;23.43;;;26.00;45.10;;;;;;5053951;28;20517;-64
2023/06/13 05:45:15;;;;;;;25.53;24.23;;;26.10;45.20;;;;;;5053863;28;20867;-63
2023/06/13 05:47:42;;;;;;;25.17;23.97;;;26.00;45.10;;;;;;5053807;28;20476;-63
2023/06/13 05:50:09;;;;;;;26.53;25.23;;;26.10;45.30;;;;;;5053925;28;20507;-63
2023/06/13 05:52:36;;;;;;;25.77;24.47;;;26.00;45.30;;;;;;5053668;28;20503;-63
2023/06/13 05:55:04;;;;;;;25.10;23.87;;;26.10;45.30;;;;;;5053893;28;20476;-63
2023/06/13 05:57:41;;;;;;;24.67;23.47;;;26.10;45.30;;;;;;5053483;28;20448;-63
2023/06/13 06:00:12;;;;;;;24.10;22.80;;;26.10;45.30;;;;;;5053671;28;20471;-63
2023/06/13 06:02:40;;;;;;;25.90;24.70;;;26.00;45.10;;;;;;5053002;28;20472;-63
2023/06/13 06:05:08;;;;;;;26.33;25.07;;;26.00;45.10;;;;;;5053538;28;20543;-62
2023/06/13 06:07:35;;;;;;;25.87;24.47;;;26.00;45.20;;;;;;5053447;28;20539;-63
2023/06/13 06:10:03;;;;;;;24.90;23.80;;;26.00;45.20;;;;;;5053458;28;21010;-63
2023/06/13 06:12:30;;;;;;;25.23;24.00;;;26.10;45.20;;;;;;5053129;28;20998;-64
2023/06/13 06:14:57;;;;;;;25.60;24.40;;;26.10;45.70;;;;;;5053300;28;20554;-62
2023/06/13 06:17:23;;;;;;;25.47;24.27;;;26.10;45.20;;;;;;5052895;28;20476;-63
2023/06/13 06:19:52;;;;;;;25.60;24.40;;;26.10;45.20;;;;;;5053185;28;20486;-63
2023/06/13 06:22:19;;;;;;;25.63;24.43;;;26.10;45.30;;;;;;5053012;28;20472;-64
2023/06/13 06:24:46;;;;;;;25.73;24.50;;;26.10;45.80;;;;;;5053193;28;20467;-63
2023/06/13 06:27:13;;;;;;;25.50;23.60;;;26.10;45.30;;;;;;5052920;28;20527;-63
2023/06/13 06:29:40;;;;;;;24.60;23.47;;;26.10;45.30;;;;;;5053032;28;20476;-63
2023/06/13 06:32:08;;;;;;;25.03;23.83;;;26.10;45.30;;;;;;5052918;28;20927;-64
2023/06/13 06:34:35;;;;;;;25.30;24.10;;;26.10;45.30;;;;;;5052999;28;20480;-63
2023/06/13 06:37:05;;;;;;;25.17;23.87;;;26.10;45.30;;;;;;5052671;28;20476;-63
2023/06/13 06:39:31;;;;;;;24.40;23.30;;;26.10;45.40;;;;;;5052892;28;20479;-63
2023/06/13 06:41:58;;;;;;;24.80;23.60;;;26.10;45.40;;;;;;5052792;28;20492;-63
2023/06/13 06:44:25;;;;;;;25.17;23.97;;;26.10;45.40;;;;;;5052789;28;20483;-63
2023/06/13 06:46:52;;;;;;;25.60;24.33;;;26.10;45.50;;;;;;5052622;28;20471;-64
2023/06/13 06:49:19;;;;;;;23.93;22.83;;;26.10;45.60;;;;;;5052694;28;20814;-64
2023/06/13 06:51:46;;;;;;;24.60;23.50;;;26.10;45.60;;;;;;5052462;28;20518;-63
2023/06/13 06:54:14;;;;;;;25.23;24.03;;;26.10;45.50;;;;;;5052625;28;20476;-62
2023/06/13 06:56:41;;;;;;;26.33;25.07;;;26.20;45.50;;;;;;5052474;28;20484;-64
2023/06/13 06:59:08;;;;;;;25.17;23.97;;;26.20;45.50;;;;;;5052442;28;20471;-63
2023/06/13 07:01:35;;;;;;;24.70;23.57;;;26.20;45.50;;;;;;5052265;28;20479;-63
2023/06/13 07:04:03;;;;;;;24.70;23.40;;;26.20;45.60;;;;;;5052427;28;20480;-63
2023/06/13 07:06:30;;;;;;;25.30;24.10;;;26.20;45.60;;;;;;5052203;28;20446;-63
2023/06/13 07:08:57;;;;;;;25.17;23.97;;;26.20;45.60;;;;;;5052338;28;20440;-63
2023/06/13 07:11:27;;;;;;;24.50;23.40;;;26.20;45.50;;;;;;5052118;28;20575;-63
2023/06/13 07:13:54;;;;;;;24.53;23.30;;;26.20;45.50;;;;;;5051109;28;20998;-64
2023/06/13 07:16:21;;;;;;;25.47;24.27;;;26.20;45.40;;;;;;5051954;28;20542;-64
2023/06/13 07:18:48;;;;;;;25.80;24.50;;;26.20;45.40;;;;;;5052233;28;20482;-64
2023/06/13 07:21:14;;;;;;;25.47;24.33;;;26.20;45.40;;;;;;5052094;28;20539;-62
2023/06/13 07:23:41;;;;;;;23.93;22.83;;;26.20;45.30;;;;;;5051981;28;20460;-64
2023/06/13 07:26:08;;;;;;;24.13;23.00;;;26.20;45.40;;;;;;5051955;28;20492;-64
2023/06/13 07:28:36;;;;;;;24.80;23.50;;;26.20;45.50;;;;;;5051956;28;20502;-64
2023/06/13 07:31:03;;;;;;;24.43;23.40;;;26.20;45.40;;;;;;5051967;28;20587;-64
2023/06/13 07:33:30;;;;;;;24.70;23.60;;;26.20;45.50;;;;;;5051874;28;20547;-64
2023/06/13 07:35:57;;;;;;;24.83;23.73;;;26.20;45.50;;;;;;5051796;28;20444;-63
2023/06/13 07:38:25;;;;;;;24.53;23.43;;;26.20;45.40;;;;;;5051970;28;20495;-64
2023/06/13 07:40:51;;;;;;;24.80;23.67;;;26.20;45.40;;;;;;5051884;28;20468;-62
2023/06/13 07:43:19;;;;;;;25.20;24.00;;;26.20;45.50;;;;;;5051639;28;20464;-64
2023/06/13 07:45:47;;;;;;;24.63;23.53;;;26.20;45.50;;;;;;5051481;28;20451;-64
2023/06/13 07:48:15;;;;;;;25.10;23.90;;;26.20;45.40;;;;;;5051714;28;20455;-63
2023/06/13 07:50:42;;;;;;;24.40;23.30;;;26.20;45.40;;;;;;5051535;28;21017;-64
2023/06/13 07:53:10;;;;;;;25.60;24.30;;;26.30;45.60;;;;;;5051742;28;20559;-63
2023/06/13 07:55:37;;;;;;;25.30;24.10;;;26.30;45.50;;;;;;5051369;28;21005;-64
2023/06/13 07:58:04;;;;;;;25.10;23.90;;;26.30;45.50;;;;;;5051493;28;20482;-62
2023/06/13 08:00:31;;;;;;;24.00;22.90;;;26.30;45.70;;;;;;5051448;28;20446;-62
2023/06/13 08:02:59;;;;;;;25.07;23.97;;;26.30;45.70;;;;;;5051306;28;20491;-62
2023/06/13 08:05:27;;;;;;;25.57;24.27;;;26.30;45.60;;;;;;5051151;28;20551;-63
2023/06/13 08:07:54;;;;;;;24.60;23.43;;;26.30;45.70;;;;;;5051279;28;20444;-63
2023/06/13 08:10:21;;;;;;;24.30;23.20;;;26.30;45.70;;;;;;5051279;28;20490;-63
2023/06/13 08:12:48;;;;;;;24.50;23.40;;;26.30;45.60;;;;;;5051084;28;20472;-63
2023/06/13 08:15:15;;;;;;;25.37;24.17;;;26.30;45.50;;;;;;5051173;28;20441;-63
2023/06/13 08:17:42;;;;;;;24.63;23.50;;;26.30;45.40;;;;;;5051171;28;20448;-63
2023/06/13 08:20:11;;;;;;;25.03;23.93;;;26.30;45.40;;;;;;5051252;28;20451;-63
2023/06/13 08:22:39;;;;;;;25.10;24.00;;;26.30;45.40;;;;;;5051160;28;20475;-63
2023/06/13 08:25:08;;;;;;;25.30;24.20;;;26.30;45.30;;;;;;5053871;28;20821;-64
2023/06/13 08:27:36;;;;;;;25.23;24.03;;;26.30;45.30;;;;;;5055111;28;20939;-62
2023/06/13 08:30:04;;;;;;;24.77;23.60;;;26.30;45.40;;;;;;5055307;28;20462;-63
2023/06/13 08:32:32;;;;;;;24.50;23.10;;;26.30;45.40;;;;;;5055150;28;20490;-64
2023/06/13 08:35:00;;;;;;;24.67;23.57;;;26.30;45.30;;;;;;5055321;28;20519;-64
2023/06/13 08:37:28;;;;;;;24.30;23.10;;;26.30;45.20;;;;;;5055086;28;20440;-63
2023/06/13 08:39:55;;;;;;;24.80;23.60;;;26.30;45.30;;;;;;5055209;28;20923;-64
2023/06/13 08:42:23;;;;;;;24.30;23.20;;;26.30;45.00;;;;;;5055022;28;20507;-63
2023/06/13 08:44:50;;;;;;;24.70;23.50;;;26.30;45.30;;;;;;5055118;28;20536;-64
2023/06/13 08:47:19;;;;;;;24.40;23.30;;;26.40;45.30;;;;;;5054802;28;20476;-64
2023/06/13 08:49:48;;;;;;;24.10;23.00;;;26.40;45.30;;;;;;5054933;28;20494;-63
2023/06/13 08:52:18;;;;;;;25.57;24.27;;;26.30;45.10;;;;;;5054859;28;20510;-63
2023/06/13 08:54:49;;;;;;;24.37;23.17;;;26.40;45.20;;;;;;5054873;28;20480;-62
2023/06/13 08:57:17;;;;;;;24.00;22.90;;;26.40;45.20;;;;;;5054732;28;20817;-63
2023/06/13 08:59:46;;;;;;;24.33;23.23;;;26.40;45.30;;;;;;5054683;28;20560;-64
2023/06/13 09:02:18;;;;;;;24.53;23.43;;;26.40;45.50;;;;;;5054631;28;20893;-63
2023/06/13 09:04:46;;;;;;;25.03;23.93;;;26.40;45.40;;;;;;5054643;28;20482;-63
2023/06/13 09:07:16;;;;;;;24.53;23.20;;;26.40;45.50;;;;;;5054480;28;20522;-63
2023/06/13 09:09:43;;;;;;;24.23;23.13;;;26.40;45.20;;;;;;5054639;28;20761;-63
2023/06/13 09:12:14;;;;;;;23.93;22.83;;;26.40;45.10;;;;;;5054357;28;20488;-63
2023/06/13 09:14:41;;;;;;;24.10;23.00;;;26.40;45.10;;;;;;5054460;28;20448;-63
2023/06/13 09:17:08;;;;;;;24.90;23.70;;;26.40;45.10;;;;;;5054323;28;20815;-63
2023/06/13 09:19:35;;;;;;;25.47;24.27;;;26.40;44.90;;;;;;5054406;28;20535;-63
2023/06/13 09:22:02;;;;;;;24.60;23.40;;;26.40;45.20;;;;;;5054554;28;20494;-61
2023/06/13 09:24:32;;;;;;;24.80;23.60;;;26.40;44.90;;;;;;5054758;28;20468;-62
2023/06/13 09:27:01;;;;;;;24.47;23.37;;;26.40;45.10;;;;;;5054293;28;20513;-61
2023/06/13 09:29:34;;;;;;;24.83;23.63;;;26.50;45.10;;;;;;5054407;28;20788;-63
2023/06/13 09:32:02;;;;;;;24.37;23.17;;;26.50;45.20;;;;;;5054223;28;21006;-61
2023/06/13 09:34:30;;;;;;;24.60;23.50;;;26.50;45.20;;;;;;5054363;28;20452;-63
2023/06/13 09:36:58;;;;;;;24.60;23.40;;;26.50;45.30;;;;;;5052759;28;20480;-63
2023/06/13 09:39:26;;;;;;;24.77;23.57;;;26.40;45.30;;;;;;5054008;28;20444;-63
2023/06/13 09:41:54;;;;;;;24.43;23.23;;;26.50;45.20;;;;;;5053989;28;20456;-63
2023/06/13 09:44:22;;;;;;;27.23;25.93;;;26.50;45.10;;;;;;5054081;28;20440;-63
2023/06/13 09:46:51;;;;;;;24.53;23.43;;;26.50;45.00;;;;;;5053784;28;20870;-63
2023/06/13 09:49:19;;;;;;;24.13;23.03;;;26.50;45.00;;;;;;5053915;28;20448;-61
2023/06/13 09:51:46;;;;;;;25.17;23.97;;;26.50;45.00;;;;;;5053631;28;20484;-63
2023/06/13 09:54:15;;;;;;;24.67;23.47;;;26.50;45.30;;;;;;5054019;28;20876;-62
2023/06/13 09:56:43;;;;;;;25.00;23.80;;;26.50;45.20;;;;;;5053413;28;20459;-61
2023/06/13 09:59:15;;;;;;;24.87;23.77;;;26.60;45.20;;;;;;5053628;28;20466;-62
2023/06/13 10:01:42;;;;;;;25.60;24.30;;;26.60;45.30;;;;;;5053649;28;20531;-63
2023/06/13 10:04:11;;;;;;;24.63;23.47;;;26.50;45.30;;;;;;5053637;28;20441;-63
2023/06/13 10:06:37;;;;;;;25.60;24.50;;;26.60;45.20;;;;;;5053317;28;20543;-62
2023/06/13 10:09:04;;;;;;;24.60;23.47;;;26.60;45.30;;;;;;5053601;28;21001;-62
2023/06/13 10:11:35;;;;;;;24.80;23.70;;;26.60;45.20;;;;;;5053355;28;20567;-63
2023/06/13 10:14:06;;;;;;;24.97;23.77;;;26.60;45.20;;;;;;5053943;28;20460;-63
2023/06/13 10:16:38;;;;;;;24.93;23.73;;;26.60;45.30;;;;;;5053405;28;20480;-64
2023/06/13 10:19:06;;;;;;;24.50;23.30;;;26.60;45.20;;;;;;5053554;28;20487;-63
2023/06/13 10:21:37;;;;;;;24.70;23.60;;;26.60;45.20;;;;;;5053561;28;20444;-63
2023/06/13 10:24:05;;;;;;;25.40;24.23;;;26.60;45.70;;;;;;5053302;28;20479;-64
2023/06/13 10:26:40;;;;;;;25.00;23.80;;;26.60;44.90;;;;;;5053001;28;20486;-64
2023/06/13 10:29:53;;;;;;;24.40;23.30;;;26.60;45.10;;;;;;5053305;28;20942;-66
2023/06/13 10:32:47;;;;;;;26.50;25.20;;;26.60;45.10;;;;;;5052810;28;20490;-65
2023/06/13 10:35:44;;;;;;;25.67;24.47;;;26.70;43.70;;;;;;5053043;28;20483;-65
2023/06/13 10:38:45;;;;;;;25.10;23.80;;;26.70;42.90;;;;;;5053011;28;20447;-65
2023/06/13 10:41:47;;;;;;;25.10;23.90;;;26.80;42.30;;;;;;5053029;28;20859;-65
2023/06/13 10:44:18;;;;;;;26.60;24.83;;;26.80;41.40;;;;;;5033594;28;20475;-66
2023/06/13 10:46:48;;;;;;;25.30;24.20;;;26.80;40.80;;;;;;5032846;28;20480;-64
2023/06/13 10:49:16;;;;;;;26.23;24.90;;;26.80;40.60;;;;;;5032916;28;20482;-65
2023/06/13 10:51:45;;;;;;;25.83;24.63;;;26.90;40.80;;;;;;5034649;28;20499;-64
2023/06/13 10:54:14;;;;;;;25.50;24.30;;;26.90;40.90;;;;;;5053362;28;20452;-63
2023/06/13 10:56:43;;;;;;;25.97;24.33;;;27.00;41.30;;;;;;5052391;28;20867;-63
2023/06/13 10:59:12;;;;;;;25.07;23.87;;;27.00;40.80;;;;;;5052670;28;20535;-63
2023/06/13 11:01:40;;;;;;;24.93;23.73;;;27.10;40.50;;;;;;5052383;28;20531;-64
2023/06/13 11:04:14;;;;;;;25.23;24.03;;;27.10;40.40;;;;;;5051725;28;20527;-62
2023/06/13 11:06:42;;;;;;;26.43;24.67;;;27.10;40.30;;;;;;5052299;28;20440;-64
2023/06/13 11:09:21;;;;;;;25.50;24.30;;;27.20;40.50;;;;;;5052060;28;20432;-62
2023/06/13 11:11:51;;;;;;;26.27;24.97;;;27.20;40.80;;;;;;5052033;28;20260;-64
2023/06/13 11:14:21;;;;;;;26.47;25.00;;;27.20;41.20;;;;;;5052370;28;20447;-64
2023/06/13 11:16:48;;;;;;;26.40;25.10;;;27.20;41.60;;;;;;5052058;28;20444;-63
2023/06/13 11:19:16;;;;;;;27.53;26.13;;;27.20;41.70;;;;;;5052272;28;20479;-63
2023/06/13 11:21:47;;;;;;;26.53;25.17;;;27.20;41.90;;;;;;5052099;28;20923;-63
2023/06/13 11:24:15;;;;;;;24.53;23.40;;;27.20;42.10;;;;;;5052166;28;20502;-64
2023/06/13 11:26:45;;;;;;;26.03;24.83;;;27.20;42.40;;;;;;5051740;28;20451;-64
2023/06/13 11:29:13;;;;;;;25.97;24.60;;;27.10;42.40;;;;;;5052081;28;20487;-63
2023/06/13 11:31:41;;;;;;;26.50;25.30;;;27.10;42.70;;;;;;5051758;28;20488;-64
2023/06/13 11:34:17;;;;;;;25.57;24.27;;;27.10;42.90;;;;;;5051950;28;20448;-64
2023/06/13 11:36:46;;;;;;;25.40;24.20;;;27.10;43.10;;;;;;5051816;28;20547;-63
2023/06/13 11:39:16;;;;;;;24.83;23.73;;;27.10;43.10;;;;;;5051809;28;20458;-65
2023/06/13 11:41:45;;;;;;;25.10;23.80;;;27.10;43.20;;;;;;5051780;28;20856;-64
2023/06/13 11:44:14;;;;;;;25.30;24.10;;;27.10;43.20;;;;;;5051851;28;20813;-63
2023/06/13 11:46:44;;;;;;;25.87;24.67;;;27.10;43.20;;;;;;5051577;28;20485;-63
2023/06/13 11:49:14;;;;;;;25.40;24.20;;;27.10;43.30;;;;;;5051935;28;20451;-63
2023/06/13 11:51:42;;;;;;;26.67;25.37;;;27.10;43.90;;;;;;5051515;28;20825;-63
2023/06/13 11:54:10;;;;;;;26.27;24.87;;;27.10;43.50;;;;;;5051607;28;20455;-64
2023/06/13 11:56:40;;;;;;;25.83;24.60;;;27.00;43.50;;;;;;5051309;28;20816;-65
2023/06/13 11:59:17;;;;;;;25.93;24.63;;;27.10;44.10;;;;;;5050925;28;20444;-64
2023/06/13 12:01:47;;;;;;;26.30;25.10;;;27.10;43.60;;;;;;5051472;28;20446;-64
2023/06/13 12:04:15;;;;;;;24.80;23.70;;;27.10;43.60;;;;;;5051637;28;20479;-65
2023/06/13 12:06:42;;;;;;;25.20;24.00;;;27.10;43.70;;;;;;5051400;28;20543;-65
2023/06/13 12:09:10;;;;;;;25.50;24.30;;;27.10;43.70;;;;;;5051368;28;20482;-63
2023/06/13 12:11:37;;;;;;;25.63;24.37;;;27.10;43.70;;;;;;5051244;28;20490;-64
2023/06/13 12:14:04;;;;;;;26.20;24.90;;;27.10;43.50;;;;;;5051280;28;20490;-66
2023/06/13 12:16:36;;;;;;;26.90;25.30;;;27.10;44.10;;;;;;5051175;28;20487;-65
2023/06/13 12:19:04;;;;;;;26.50;25.20;;;27.10;44.10;;;;;;5051390;28;20486;-63
2023/06/13 12:21:32;;;;;;;25.37;24.17;;;27.10;43.70;;;;;;5051263;28;20444;-63
2023/06/13 12:24:00;;;;;;;27.43;26.13;;;27.10;43.80;;;;;;5051120;28;20491;-65
2023/06/13 12:26:30;;;;;;;26.33;25.13;;;27.10;43.70;;;;;;5051003;28;20440;-63
2023/06/13 12:28:59;;;;;;;24.90;23.80;;;27.10;43.70;;;;;;5051105;28;20978;-64
2023/06/13 12:31:33;;;;;;;26.30;25.00;;;27.10;43.80;;;;;;5051249;28;20459;-64
2023/06/13 12:34:13;;;;;;;25.97;24.70;;;27.20;43.80;;;;;;5051135;28;20530;-66
2023/06/13 12:36:44;;;;;;;26.07;24.87;;;27.10;43.70;;;;;;5051052;28;20448;-66